Time;durP1;ratioP1;P1;durP2;ratioP2;P2;SDS_P1;SDS_P2;PMS_P1;PMS_P2;Temp;Humidity;BMP_temperature;BMP_pressure;BME280_temperature;BME280_humidity;BME280_pressure;Samples;Min_cycle;Max_cycle;Signal;HPM_P1;HPM_P2
2022/01/01 00:00:16;;;;;;;4.85;3.10;;;;;;;;;;5044588;28;20180;-44
2022/01/01 00:02:42;;;;;;;5.05;3.00;;;;;;;;;;5028457;28;20801;-44
2022/01/01 00:05:09;;;;;;;7.25;3.38;;;;;;;;;;5025054;28;20214;-44
2022/01/01 00:07:35;;;;;;;8.30;3.15;;;;;;;;;;5038355;28;20191;-44
2022/01/01 00:10:02;;;;;;;8.98;2.90;;;;;;;;;;5030834;28;20188;-44
2022/01/01 00:12:28;;;;;;;5.35;3.22;;;;;;;;;;5026509;28;20180;-44
2022/01/01 00:14:54;;;;;;;7.47;3.33;;;;;;;;;;5030059;28;20585;-44
2022/01/01 00:17:20;;;;;;;5.05;2.92;;;;;;;;;;5043133;28;20203;-43
2022/01/01 00:19:46;;;;;;;8.73;3.05;;;;;;;;;;5028563;28;20205;-44
2022/01/01 00:22:12;;;;;;;4.80;3.00;;;;;;;;;;5025923;28;20176;-44
2022/01/01 00:24:38;;;;;;;8.98;2.63;;;;;;;;;;5039499;28;20569;-44
2022/01/01 00:27:04;;;;;;;4.95;2.83;;;;;;;;;;5039187;28;20175;-44
2022/01/01 00:29:30;;;;;;;3.97;2.40;;;;;;;;;;5020435;28;20192;-44
2022/01/01 00:31:56;;;;;;;4.72;2.80;;;;;;;;;;5048467;28;20462;-44
2022/01/01 00:34:22;;;;;;;7.63;2.97;;;;;;;;;;5028816;28;20221;-44
2022/01/01 00:36:48;;;;;;;4.57;2.90;;;;;;;;;;5029662;28;20234;-44
2022/01/01 00:39:14;;;;;;;6.28;2.78;;;;;;;;;;5035289;28;20180;-44
2022/01/01 00:41:40;;;;;;;3.33;2.55;;;;;;;;;;5031291;28;20180;-44
2022/01/01 00:44:06;;;;;;;7.47;2.78;;;;;;;;;;5033872;28;20180;-44
2022/01/01 00:46:32;;;;;;;5.45;2.80;;;;;;;;;;5040526;28;20203;-44
2022/01/01 00:48:58;;;;;;;4.75;2.65;;;;;;;;;;5029767;28;20344;-44
2022/01/01 00:51:24;;;;;;;4.47;2.70;;;;;;;;;;5031045;28;20187;-44
2022/01/01 00:53:50;;;;;;;5.05;3.17;;;;;;;;;;5037169;28;20499;-44
2022/01/01 00:56:17;;;;;;;5.07;2.97;;;;;;;;;;5034125;28;20214;-44
2022/01/01 00:58:43;;;;;;;3.03;2.50;;;;;;;;;;5030200;28;20186;-44
2022/01/01 01:01:09;;;;;;;5.35;2.55;;;;;;;;;;5044391;28;20175;-44
2022/01/01 01:03:36;;;;;;;3.25;2.25;;;;;;;;;;5027413;28;20560;-44
2022/01/01 01:06:02;;;;;;;3.10;2.40;;;;;;;;;;5030805;28;20550;-44
2022/01/01 01:08:30;;;;;;;4.82;2.50;;;;;;;;;;5026541;28;20189;-44
2022/01/01 01:10:57;;;;;;;3.40;2.20;;;;;;;;;;5042236;28;20179;-44
2022/01/01 01:13:24;;;;;;;3.30;2.67;;;;;;;;;;5035247;28;20191;-44
2022/01/01 01:15:51;;;;;;;4.45;2.42;;;;;;;;;;5028728;28;20191;-44
2022/01/01 01:18:17;;;;;;;4.88;2.38;;;;;;;;;;5032154;28;20184;-44
2022/01/01 01:20:43;;;;;;;2.67;2.15;;;;;;;;;;5035462;28;20279;-44
2022/01/01 01:23:10;;;;;;;3.03;2.20;;;;;;;;;;5029041;28;20569;-45
2022/01/01 01:25:40;;;;;;;3.80;2.40;;;;;;;;;;5043167;28;20187;-44
2022/01/01 01:28:10;;;;;;;4.22;2.25;;;;;;;;;;5022247;28;20184;-44
2022/01/01 01:30:37;;;;;;;4.28;2.40;;;;;;;;;;5042944;28;20175;-44
2022/01/01 01:33:04;;;;;;;4.13;2.30;;;;;;;;;;5035296;28;20184;-44
2022/01/01 01:35:30;;;;;;;4.43;2.33;;;;;;;;;;5022378;28;20192;-44
2022/01/01 01:37:56;;;;;;;5.20;2.45;;;;;;;;;;5033246;28;20221;-44
2022/01/01 01:40:22;;;;;;;7.95;2.40;;;;;;;;;;5035664;28;20445;-44
2022/01/01 01:42:48;;;;;;;3.50;2.10;;;;;;;;;;5027809;28;20267;-44
2022/01/01 01:45:19;;;;;;;2.47;1.98;;;;;;;;;;5030629;28;20547;-44
2022/01/01 01:47:46;;;;;;;4.53;2.20;;;;;;;;;;5025609;28;20179;-44
2022/01/01 01:50:13;;;;;;;3.40;2.08;;;;;;;;;;5039233;28;20192;-44
2022/01/01 01:52:40;;;;;;;5.22;2.42;;;;;;;;;;5046628;28;20184;-44
2022/01/01 01:55:10;;;;;;;4.05;2.15;;;;;;;;;;5032270;28;20230;-44
2022/01/01 01:57:39;;;;;;;4.28;2.35;;;;;;;;;;5031605;28;20216;-44
2022/01/01 02:00:09;;;;;;;3.50;2.20;;;;;;;;;;5033706;28;20212;-44
2022/01/01 02:02:35;;;;;;;2.20;2.00;;;;;;;;;;5034994;28;20280;-44
2022/01/01 02:05:02;;;;;;;6.05;2.30;;;;;;;;;;5024893;28;20270;-44
2022/01/01 02:07:28;;;;;;;3.28;2.05;;;;;;;;;;5043389;28;20192;-44
2022/01/01 02:09:54;;;;;;;3.55;2.35;;;;;;;;;;5045284;28;20241;-44
2022/01/01 02:12:22;;;;;;;4.50;2.08;;;;;;;;;;5043165;28;20468;-44
2022/01/01 02:17:20;;;;;;;4.47;2.25;;;;;;;;;;5041084;28;20326;-44
2022/01/01 02:19:46;;;;;;;2.60;1.80;;;;;;;;;;5026503;28;20212;-44
2022/01/01 02:22:12;;;;;;;3.13;2.30;;;;;;;;;;5021704;28;20509;-45
2022/01/01 02:24:38;;;;;;;2.95;2.20;;;;;;;;;;5027300;28;20522;-44
2022/01/01 02:27:05;;;;;;;3.13;2.13;;;;;;;;;;5042106;28;20215;-44
2022/01/01 02:29:31;;;;;;;4.22;2.20;;;;;;;;;;5038625;28;20206;-44
2022/01/01 02:31:57;;;;;;;2.42;2.05;;;;;;;;;;5034592;28;20188;-44
2022/01/01 02:34:23;;;;;;;2.28;2.00;;;;;;;;;;5027900;28;20191;-44
2022/01/01 02:36:49;;;;;;;3.17;2.10;;;;;;;;;;5046166;28;20286;-44
2022/01/01 02:39:22;;;;;;;3.53;2.30;;;;;;;;;;5027680;28;20267;-44
2022/01/01 02:41:50;;;;;;;4.13;2.28;;;;;;;;;;5038099;28;20187;-44
2022/01/01 02:44:16;;;;;;;3.45;2.15;;;;;;;;;;5030549;28;20188;-44
2022/01/01 02:46:42;;;;;;;2.35;1.98;;;;;;;;;;5048405;28;20432;-45
2022/01/01 02:49:09;;;;;;;3.28;2.00;;;;;;;;;;5036908;28;20188;-44
2022/01/01 02:51:35;;;;;;;4.13;2.33;;;;;;;;;;5021811;28;20192;-44
2022/01/01 02:54:01;;;;;;;2.38;1.75;;;;;;;;;;5022796;28;20216;-44
2022/01/01 02:56:28;;;;;;;2.13;1.80;;;;;;;;;;5049021;28;20203;-44
2022/01/01 02:58:54;;;;;;;2.97;2.00;;;;;;;;;;5029431;28;20179;-44
2022/01/01 03:01:20;;;;;;;2.42;1.90;;;;;;;;;;5042408;28;20466;-44
2022/01/01 03:03:49;;;;;;;2.63;1.77;;;;;;;;;;5032368;28;20573;-44
2022/01/01 03:06:19;;;;;;;2.70;1.85;;;;;;;;;;5030433;28;20180;-44
2022/01/01 03:08:46;;;;;;;2.60;1.88;;;;;;;;;;5029514;28;20238;-44
2022/01/01 03:11:12;;;;;;;2.45;1.70;;;;;;;;;;5047498;28;20241;-44
2022/01/01 03:13:38;;;;;;;3.78;1.83;;;;;;;;;;5029291;28;20192;-44
2022/01/01 03:16:04;;;;;;;2.55;1.65;;;;;;;;;;5034675;28;20213;-44
2022/01/01 03:18:30;;;;;;;2.88;1.75;;;;;;;;;;5029630;28;20559;-44
2022/01/01 03:20:56;;;;;;;2.40;1.73;;;;;;;;;;5040261;28;20175;-44
2022/01/01 03:23:22;;;;;;;2.05;1.85;;;;;;;;;;5028498;28;20500;-44
2022/01/01 03:25:48;;;;;;;2.70;1.50;;;;;;;;;;5041293;28;20270;-44
2022/01/01 03:28:14;;;;;;;2.28;1.80;;;;;;;;;;5032883;28;20180;-44
2022/01/01 03:30:40;;;;;;;2.40;1.80;;;;;;;;;;5042922;28;20203;-45
2022/01/01 03:33:06;;;;;;;1.50;1.40;;;;;;;;;;5036499;28;20657;-44
2022/01/01 03:35:32;;;;;;;2.72;1.95;;;;;;;;;;5044048;28;20222;-44
2022/01/01 03:37:58;;;;;;;3.00;1.83;;;;;;;;;;5034557;28;20214;-44
2022/01/01 03:40:24;;;;;;;1.88;1.70;;;;;;;;;;5023083;28;20245;-44
2022/01/01 03:42:50;;;;;;;2.17;1.88;;;;;;;;;;5030804;28;20179;-44
2022/01/01 03:45:16;;;;;;;2.22;1.83;;;;;;;;;;5027132;28;20183;-44
2022/01/01 03:47:42;;;;;;;2.03;1.70;;;;;;;;;;5040270;28;20445;-44
2022/01/01 03:50:08;;;;;;;1.85;1.70;;;;;;;;;;5028125;28;20192;-44
2022/01/01 03:52:34;;;;;;;2.28;1.52;;;;;;;;;;5036522;28;20274;-44
2022/01/01 03:55:00;;;;;;;1.73;1.63;;;;;;;;;;5032340;28;20194;-44
2022/01/01 03:57:27;;;;;;;1.30;1.20;;;;;;;;;;5038940;28;20215;-44
2022/01/01 03:59:53;;;;;;;1.70;1.60;;;;;;;;;;5042650;28;20546;-44
2022/01/01 04:02:19;;;;;;;1.95;1.77;;;;;;;;;;5044196;28;20252;-44
2022/01/01 04:04:44;;;;;;;1.92;1.75;;;;;;;;;;5025352;28;20180;-44
2022/01/01 04:07:10;;;;;;;1.80;1.70;;;;;;;;;;5043676;28;20573;-44
2022/01/01 04:09:36;;;;;;;2.28;1.80;;;;;;;;;;5029127;28;20508;-44
2022/01/01 04:12:03;;;;;;;2.17;1.50;;;;;;;;;;5035217;28;20191;-44
2022/01/01 04:14:29;;;;;;;1.40;1.30;;;;;;;;;;5033450;28;20215;-44
2022/01/01 04:16:55;;;;;;;2.88;1.50;;;;;;;;;;5034265;28;20242;-44
2022/01/01 04:19:28;;;;;;;1.90;1.73;;;;;;;;;;5023201;28;20238;-44
2022/01/01 04:21:54;;;;;;;1.98;1.60;;;;;;;;;;5025089;28;21482;-44
2022/01/01 04:24:20;;;;;;;1.42;1.33;;;;;;;;;;5019174;28;20187;-44
2022/01/01 04:26:46;;;;;;;2.13;1.50;;;;;;;;;;5037531;28;20550;-44
2022/01/01 04:29:12;;;;;;;1.77;1.50;;;;;;;;;;5034527;28;20197;-44
2022/01/01 04:31:38;;;;;;;1.40;1.30;;;;;;;;;;5046890;28;20191;-44
2022/01/01 04:34:03;;;;;;;1.85;1.40;;;;;;;;;;5021828;28;20523;-44
2022/01/01 04:36:30;;;;;;;1.67;1.58;;;;;;;;;;5031297;28;20220;-44
2022/01/01 04:38:56;;;;;;;2.20;1.58;;;;;;;;;;5039834;28;20640;-44
2022/01/01 04:41:22;;;;;;;1.83;1.55;;;;;;;;;;5036018;28;20210;-44
2022/01/01 04:43:49;;;;;;;1.60;1.50;;;;;;;;;;5031798;28;20459;-44
2022/01/01 04:46:15;;;;;;;1.95;1.50;;;;;;;;;;5037841;28;20183;-44
2022/01/01 04:48:41;;;;;;;1.75;1.65;;;;;;;;;;5039743;28;20199;-44
2022/01/01 04:51:08;;;;;;;1.67;1.58;;;;;;;;;;5042693;28;20442;-44
2022/01/01 04:53:34;;;;;;;1.48;1.38;;;;;;;;;;5026785;28;20397;-44
2022/01/01 04:56:04;;;;;;;1.48;1.38;;;;;;;;;;5041732;28;20194;-44
2022/01/01 04:58:30;;;;;;;1.50;1.40;;;;;;;;;;5040600;28;20210;-44
2022/01/01 05:00:56;;;;;;;1.60;1.50;;;;;;;;;;5039728;28;20175;-44
2022/01/01 05:03:22;;;;;;;1.55;1.40;;;;;;;;;;5034683;28;20192;-44
2022/01/01 05:05:48;;;;;;;1.70;1.55;;;;;;;;;;5032766;28;20192;-44
2022/01/01 05:08:14;;;;;;;2.03;1.45;;;;;;;;;;5034642;28;20176;-44
2022/01/01 05:10:40;;;;;;;1.75;1.30;;;;;;;;;;5038081;28;20234;-44
2022/01/01 05:13:06;;;;;;;1.52;1.42;;;;;;;;;;5040317;28;20191;-44
2022/01/01 05:15:32;;;;;;;1.50;1.40;;;;;;;;;;5025600;28;20630;-44
2022/01/01 05:17:58;;;;;;;1.30;1.20;;;;;;;;;;5030803;28;20208;-44
2022/01/01 05:20:25;;;;;;;1.50;1.40;;;;;;;;;;5024378;28;20183;-44
2022/01/01 05:22:51;;;;;;;1.40;1.30;;;;;;;;;;5032763;28;20171;-44
2022/01/01 05:25:17;;;;;;;1.35;1.25;;;;;;;;;;5033195;28;20221;-44
2022/01/01 05:27:44;;;;;;;1.15;1.10;;;;;;;;;;5046474;28;20194;-44
2022/01/01 05:30:11;;;;;;;1.30;1.20;;;;;;;;;;5026397;28;20577;-44
2022/01/01 05:32:37;;;;;;;1.98;1.52;;;;;;;;;;5041011;28;20188;-44
2022/01/01 05:35:03;;;;;;;1.33;1.23;;;;;;;;;;5043437;28;20564;-44
2022/01/01 05:37:29;;;;;;;1.33;1.23;;;;;;;;;;5056143;28;20305;-43
2022/01/01 05:39:55;;;;;;;1.20;1.13;;;;;;;;;;5035797;28;20184;-44
2022/01/01 05:42:21;;;;;;;1.65;1.17;;;;;;;;;;5033686;28;20200;-44
2022/01/01 05:44:47;;;;;;;1.20;1.10;;;;;;;;;;5043591;28;20180;-43
2022/01/01 05:47:13;;;;;;;1.48;1.38;;;;;;;;;;5048041;28;20179;-44
2022/01/01 05:49:39;;;;;;;1.52;1.42;;;;;;;;;;5041991;28;20687;-44
2022/01/01 05:52:05;;;;;;;1.73;1.17;;;;;;;;;;5043284;28;20195;-44
2022/01/01 05:54:31;;;;;;;1.30;1.20;;;;;;;;;;5034684;28;20277;-44
2022/01/01 05:56:57;;;;;;;1.95;1.40;;;;;;;;;;5030619;28;20268;-44
2022/01/01 05:59:23;;;;;;;1.60;1.30;;;;;;;;;;5024739;28;20195;-44
2022/01/01 06:01:49;;;;;;;1.30;1.13;;;;;;;;;;5035930;28;20187;-44
2022/01/01 06:04:15;;;;;;;1.60;1.40;;;;;;;;;;5040091;28;20270;-44
2022/01/01 06:06:41;;;;;;;1.30;1.20;;;;;;;;;;5050937;28;20191;-44
2022/01/01 06:09:07;;;;;;;2.50;1.35;;;;;;;;;;5031530;28;20578;-44
2022/01/01 06:11:33;;;;;;;1.50;1.20;;;;;;;;;;5041851;28;20241;-44
2022/01/01 06:13:59;;;;;;;1.67;1.23;;;;;;;;;;5036054;28;20294;-44
2022/01/01 06:16:25;;;;;;;1.58;1.27;;;;;;;;;;5031576;28;20214;-44
2022/01/01 06:18:51;;;;;;;1.27;1.17;;;;;;;;;;5030487;28;20187;-44
2022/01/01 06:21:17;;;;;;;1.65;1.38;;;;;;;;;;5034485;28;20176;-44
2022/01/01 06:23:43;;;;;;;1.48;1.38;;;;;;;;;;5035076;28;20493;-44
2022/01/01 06:26:09;;;;;;;1.40;1.30;;;;;;;;;;5042592;28;20175;-44
2022/01/01 06:28:35;;;;;;;2.30;1.83;;;;;;;;;;5037400;28;20458;-44
2022/01/01 06:31:01;;;;;;;2.10;2.00;;;;;;;;;;5023485;28;20179;-44
2022/01/01 06:33:27;;;;;;;3.25;2.00;;;;;;;;;;5040388;28;20256;-44
2022/01/01 06:35:55;;;;;;;2.30;2.10;;;;;;;;;;5022434;28;20554;-44
2022/01/01 06:38:21;;;;;;;5.07;2.47;;;;;;;;;;5036244;28;20190;-45
2022/01/01 06:40:48;;;;;;;3.85;2.20;;;;;;;;;;5043295;28;20455;-44
2022/01/01 06:43:16;;;;;;;3.70;2.63;;;;;;;;;;5024980;28;20183;-44
2022/01/01 06:45:42;;;;;;;3.10;2.42;;;;;;;;;;5030641;28;20919;-44
2022/01/01 06:48:08;;;;;;;2.60;2.30;;;;;;;;;;5032126;28;20203;-44
2022/01/01 06:50:35;;;;;;;4.97;2.85;;;;;;;;;;5038451;28;20188;-44
2022/01/01 06:53:01;;;;;;;3.20;2.40;;;;;;;;;;5035079;28;20267;-44
2022/01/01 06:55:27;;;;;;;2.33;2.13;;;;;;;;;;5032403;28;20241;-44
2022/01/01 06:57:54;;;;;;;3.03;2.15;;;;;;;;;;5035792;28;20242;-44
2022/01/01 07:00:20;;;;;;;2.70;2.50;;;;;;;;;;5040732;28;20222;-45
2022/01/01 07:02:47;;;;;;;2.55;2.35;;;;;;;;;;5039671;28;20206;-44
2022/01/01 07:05:14;;;;;;;2.10;2.00;;;;;;;;;;5035850;28;20259;-44
2022/01/01 07:07:40;;;;;;;3.05;1.90;;;;;;;;;;5045437;28;20187;-44
2022/01/01 07:10:07;;;;;;;4.10;2.28;;;;;;;;;;5040028;28;20183;-44
2022/01/01 07:12:36;;;;;;;2.90;2.35;;;;;;;;;;5033967;28;20493;-44
2022/01/01 07:15:03;;;;;;;114.25;76.28;;;;;;;;;;5018514;28;20722;-44
2022/01/01 07:17:29;;;;;;;229.43;171.85;;;;;;;;;;5036490;28;20289;-44
2022/01/01 07:19:55;;;;;;;873.42;668.45;;;;;;;;;;5046318;28;20605;-44
2022/01/01 07:22:21;;;;;;;880.08;710.22;;;;;;;;;;5045246;28;20192;-44
2022/01/01 07:24:49;;;;;;;1760.70;999.90;;;;;;;;;;5026862;28;20216;-45
2022/01/01 07:27:16;;;;;;;1214.63;790.85;;;;;;;;;;5043311;28;20510;-45
2022/01/01 07:29:42;;;;;;;617.78;388.25;;;;;;;;;;5028075;28;20185;-44
2022/01/01 07:32:09;;;;;;;393.05;213.40;;;;;;;;;;5029028;28;20604;-44
2022/01/01 07:34:35;;;;;;;254.40;130.80;;;;;;;;;;5028382;28;20292;-46
2022/01/01 07:37:01;;;;;;;195.25;107.93;;;;;;;;;;5049144;28;20214;-44
2022/01/01 07:39:27;;;;;;;167.43;90.82;;;;;;;;;;5029147;28;20172;-44
2022/01/01 07:41:53;;;;;;;155.68;82.53;;;;;;;;;;5049749;28;20294;-45
2022/01/01 07:44:19;;;;;;;139.85;75.40;;;;;;;;;;5038809;28;20591;-44
2022/01/01 07:46:45;;;;;;;129.52;67.90;;;;;;;;;;5034563;28;20189;-44
2022/01/01 07:49:11;;;;;;;111.32;59.13;;;;;;;;;;5040444;28;20186;-44
2022/01/01 07:51:37;;;;;;;103.43;55.45;;;;;;;;;;5043929;28;20270;-44
2022/01/01 07:54:03;;;;;;;99.20;53.53;;;;;;;;;;5035834;28;20285;-44
2022/01/01 07:56:29;;;;;;;86.03;48.00;;;;;;;;;;5042408;28;20645;-44
2022/01/01 07:58:55;;;;;;;76.32;42.72;;;;;;;;;;5026965;28;20212;-44
2022/01/01 08:01:21;;;;;;;78.80;40.63;;;;;;;;;;5037855;28;20268;-46
2022/01/01 08:03:49;;;;;;;72.88;40.42;;;;;;;;;;5034759;28;20563;-45
2022/01/01 08:06:16;;;;;;;61.15;34.97;;;;;;;;;;5036469;28;20222;-45
2022/01/01 08:08:41;;;;;;;59.42;34.33;;;;;;;;;;5033625;28;20233;-45
2022/01/01 08:11:07;;;;;;;58.72;32.67;;;;;;;;;;5040896;28;20215;-46
2022/01/01 08:13:35;;;;;;;53.63;30.85;;;;;;;;;;5039077;28;20187;-45
2022/01/01 08:16:02;;;;;;;49.05;28.90;;;;;;;;;;5026413;28;20210;-45
2022/01/01 08:18:29;;;;;;;51.25;29.30;;;;;;;;;;5032406;28;20485;-45
2022/01/01 08:20:56;;;;;;;46.45;27.98;;;;;;;;;;5026623;28;20198;-45
2022/01/01 08:23:22;;;;;;;43.55;26.70;;;;;;;;;;5032445;28;20198;-45
2022/01/01 08:25:48;;;;;;;49.97;27.73;;;;;;;;;;5035478;28;20198;-45
2022/01/01 08:28:14;;;;;;;45.20;26.20;;;;;;;;;;5033827;28;20179;-45
2022/01/01 08:30:40;;;;;;;42.75;25.60;;;;;;;;;;5016899;28;20459;-46
2022/01/01 08:33:07;;;;;;;41.17;23.65;;;;;;;;;;5029330;28;20214;-47
2022/01/01 08:35:33;;;;;;;42.22;24.13;;;;;;;;;;5031079;28;20186;-46
2022/01/01 08:38:00;;;;;;;39.63;21.88;;;;;;;;;;5044759;28;20241;-46
2022/01/01 08:40:27;;;;;;;37.25;21.27;;;;;;;;;;5039513;28;20237;-46
2022/01/01 08:42:53;;;;;;;35.60;19.40;;;;;;;;;;5046445;28;20249;-46
2022/01/01 08:45:20;;;;;;;37.05;19.83;;;;;;;;;;5031797;28;20565;-46
2022/01/01 08:47:46;;;;;;;32.38;18.98;;;;;;;;;;5039465;28;20183;-46
2022/01/01 08:50:12;;;;;;;35.25;18.90;;;;;;;;;;5035181;28;20513;-46
2022/01/01 08:52:38;;;;;;;40.08;18.38;;;;;;;;;;5032060;28;20211;-46
2022/01/01 08:55:04;;;;;;;30.63;17.25;;;;;;;;;;5036515;28;20281;-46
2022/01/01 08:57:32;;;;;;;30.13;16.92;;;;;;;;;;5027427;28;20271;-46
2022/01/01 08:59:58;;;;;;;32.60;17.75;;;;;;;;;;5033904;28;20229;-46
2022/01/01 09:02:24;;;;;;;26.23;15.70;;;;;;;;;;5037428;28;20203;-46
2022/01/01 09:04:50;;;;;;;27.58;16.10;;;;;;;;;;5046848;28;20183;-46
2022/01/01 09:07:17;;;;;;;30.45;16.10;;;;;;;;;;5045408;28;20189;-46
2022/01/01 09:09:43;;;;;;;27.50;16.10;;;;;;;;;;5036543;28;20182;-46
2022/01/01 09:12:09;;;;;;;26.88;14.98;;;;;;;;;;5040988;28;20461;-46
2022/01/01 09:14:35;;;;;;;23.58;14.07;;;;;;;;;;5044971;28;20190;-46
2022/01/01 09:17:02;;;;;;;23.73;13.75;;;;;;;;;;5048896;28;20194;-46
2022/01/01 09:19:28;;;;;;;24.95;13.55;;;;;;;;;;5030398;28;20188;-46
2022/01/01 09:21:54;;;;;;;26.15;13.43;;;;;;;;;;5041861;28;20249;-46
2022/01/01 09:24:20;;;;;;;21.58;13.73;;;;;;;;;;5038600;28;20179;-46
2022/01/01 09:26:46;;;;;;;21.08;13.13;;;;;;;;;;5010587;28;20439;-46
2022/01/01 09:29:12;;;;;;;23.33;12.77;;;;;;;;;;5045289;28;20190;-46
2022/01/01 09:31:39;;;;;;;21.75;12.75;;;;;;;;;;5047963;28;20577;-46
2022/01/01 09:34:05;;;;;;;20.95;12.52;;;;;;;;;;5045388;28;20245;-46
2022/01/01 09:36:31;;;;;;;19.13;11.90;;;;;;;;;;5055842;28;20293;-46
2022/01/01 09:38:57;;;;;;;18.60;11.35;;;;;;;;;;5045462;28;21634;-46
2022/01/01 09:41:23;;;;;;;19.60;12.55;;;;;;;;;;5029360;28;20283;-46
2022/01/01 09:43:53;;;;;;;20.23;11.98;;;;;;;;;;5049374;28;20266;-46
2022/01/01 09:46:19;;;;;;;17.70;10.23;;;;;;;;;;5042031;28;20246;-46
2022/01/01 09:48:45;;;;;;;19.08;11.38;;;;;;;;;;5040722;28;20599;-46
2022/01/01 09:51:11;;;;;;;17.35;11.05;;;;;;;;;;5036568;28;20183;-46
2022/01/01 09:53:37;;;;;;;19.08;10.93;;;;;;;;;;5023656;28;20212;-46
2022/01/01 09:56:03;;;;;;;15.88;10.02;;;;;;;;;;5047789;28;20187;-47
2022/01/01 09:58:31;;;;;;;18.27;11.35;;;;;;;;;;5039463;28;20205;-46
2022/01/01 10:00:57;;;;;;;18.13;10.45;;;;;;;;;;5033853;28;20181;-46
2022/01/01 10:03:30;;;;;;;19.95;10.80;;;;;;;;;;5036057;28;20210;-46
2022/01/01 10:05:56;;;;;;;17.35;10.48;;;;;;;;;;5026853;28;20242;-46
2022/01/01 10:08:25;;;;;;;16.88;9.95;;;;;;;;;;5033837;28;20195;-46
2022/01/01 10:10:52;;;;;;;13.18;9.43;;;;;;;;;;5050067;28;20182;-46
2022/01/01 10:13:20;;;;;;;15.88;9.20;;;;;;;;;;5046330;28;20298;-46
2022/01/01 10:15:46;;;;;;;15.27;9.20;;;;;;;;;;5036461;28;20610;-46
2022/01/01 10:18:12;;;;;;;14.85;9.38;;;;;;;;;;5035877;28;20227;-46
2022/01/01 10:20:43;;;;;;;12.57;8.48;;;;;;;;;;5043851;28;20215;-46
2022/01/01 10:23:15;;;;;;;14.43;9.25;;;;;;;;;;5044810;28;20181;-46
2022/01/01 10:28:26;;;;;;;12.40;8.38;;;;;;;;;;5035401;28;20250;-46
2022/01/01 10:30:52;;;;;;;13.25;8.43;;;;;;;;;;5029331;28;20190;-46
2022/01/01 10:33:19;;;;;;;10.45;7.50;;;;;;;;;;5031818;28;20225;-46
2022/01/01 10:35:49;;;;;;;13.75;8.63;;;;;;;;;;5051761;28;20172;-46
2022/01/01 10:38:17;;;;;;;11.93;8.48;;;;;;;;;;5050060;28;20210;-46
2022/01/01 10:40:44;;;;;;;13.82;7.85;;;;;;;;;;5041541;28;20460;-46
2022/01/01 10:43:10;;;;;;;11.77;7.72;;;;;;;;;;5035183;28;20200;-46
2022/01/01 10:45:38;;;;;;;10.95;7.30;;;;;;;;;;5041370;28;20184;-46
2022/01/01 10:48:39;;;;;;;11.63;7.47;;;;;;;;;;5038531;28;20190;-46
2022/01/01 10:51:07;;;;;;;10.48;7.15;;;;;;;;;;5023249;28;20191;-46
2022/01/01 10:53:34;;;;;;;12.15;7.65;;;;;;;;;;5038829;28;20508;-46
2022/01/01 10:56:05;;;;;;;11.18;7.00;;;;;;;;;;5042283;28;20191;-46
2022/01/01 10:58:32;;;;;;;11.25;7.22;;;;;;;;;;5035026;28;20286;-46
2022/01/01 11:01:07;;;;;;;11.77;7.20;;;;;;;;;;5030108;28;20183;-46
2022/01/01 11:03:37;;;;;;;12.38;7.28;;;;;;;;;;5034343;28;20195;-46
2022/01/01 11:06:08;;;;;;;11.20;7.18;;;;;;;;;;5033277;28;20558;-48
2022/01/01 11:08:35;;;;;;;10.93;7.20;;;;;;;;;;5043704;28;20191;-46
2022/01/01 11:11:02;;;;;;;11.48;7.05;;;;;;;;;;5044121;28;20215;-46
2022/01/01 11:13:29;;;;;;;9.95;6.88;;;;;;;;;;5017728;28;20199;-47
2022/01/01 11:15:55;;;;;;;9.38;6.40;;;;;;;;;;5028658;28;20205;-46
2022/01/01 11:18:22;;;;;;;12.73;6.95;;;;;;;;;;5037666;28;20228;-46
2022/01/01 11:20:49;;;;;;;12.48;7.35;;;;;;;;;;5030906;28;20215;-47
2022/01/01 11:23:15;;;;;;;13.30;6.80;;;;;;;;;;5033047;28;20534;-46
2022/01/01 11:25:42;;;;;;;12.07;7.20;;;;;;;;;;5037601;28;20184;-46
2022/01/01 11:28:12;;;;;;;14.50;6.78;;;;;;;;;;5041957;28;20195;-46
2022/01/01 11:30:42;;;;;;;11.77;6.32;;;;;;;;;;5025320;28;20535;-46
2022/01/01 11:33:12;;;;;;;10.38;6.47;;;;;;;;;;5031936;28;20225;-46
2022/01/01 11:35:43;;;;;;;12.32;7.82;;;;;;;;;;5034743;28;20474;-46
2022/01/01 11:38:16;;;;;;;14.25;8.63;;;;;;;;;;5024411;28;20298;-47
2022/01/01 11:40:54;;;;;;;11.30;8.20;;;;;;;;;;5027574;28;20630;-46
2022/01/01 11:43:39;;;;;;;14.35;8.27;;;;;;;;;;5026578;28;20198;-46
2022/01/01 11:46:11;;;;;;;16.02;9.10;;;;;;;;;;5033682;28;20180;-46
2022/01/01 11:48:41;;;;;;;12.30;7.53;;;;;;;;;;5031242;28;20175;-46
2022/01/01 11:51:28;;;;;;;12.10;7.60;;;;;;;;;;5037218;28;20171;-46
2022/01/01 11:54:06;;;;;;;29.20;12.73;;;;;;;;;;5029692;28;20181;-46
2022/01/01 11:56:48;;;;;;;29.13;12.00;;;;;;;;;;5042331;28;20207;-46
2022/01/01 11:59:26;;;;;;;33.42;13.20;;;;;;;;;;5036262;28;20186;-46
2022/01/01 12:01:57;;;;;;;37.92;13.77;;;;;;;;;;5040785;28;20187;-46
2022/01/01 12:04:40;;;;;;;38.42;14.70;;;;;;;;;;5034450;28;20180;-46
2022/01/01 12:07:13;;;;;;;35.22;15.90;;;;;;;;;;5029032;28;20183;-46
2022/01/01 12:09:58;;;;;;;31.80;14.75;;;;;;;;;;5044712;28;20183;-46
2022/01/01 12:12:41;;;;;;;37.85;14.40;;;;;;;;;;5036408;28;20182;-46
2022/01/01 12:15:08;;;;;;;34.90;13.85;;;;;;;;;;5042737;28;20182;-46
2022/01/01 12:17:45;;;;;;;36.97;14.70;;;;;;;;;;5036933;28;20235;-46
2022/01/01 12:20:15;;;;;;;27.67;12.35;;;;;;;;;;5030439;28;20232;-46
2022/01/01 12:22:43;;;;;;;25.60;13.40;;;;;;;;;;5023418;28;20499;-46
2022/01/01 12:25:09;;;;;;;25.73;11.93;;;;;;;;;;5038687;28;20542;-46
2022/01/01 12:27:47;;;;;;;24.20;11.95;;;;;;;;;;5049409;28;20171;-46
2022/01/01 12:30:16;;;;;;;24.65;12.13;;;;;;;;;;5027227;28;20546;-46
2022/01/01 12:32:46;;;;;;;28.80;10.68;;;;;;;;;;5025246;28;20881;-46
2022/01/01 12:35:18;;;;;;;22.50;10.32;;;;;;;;;;5030410;28;20207;-46
2022/01/01 12:37:44;;;;;;;23.90;10.43;;;;;;;;;;5039901;28;20203;-46
2022/01/01 12:40:11;;;;;;;20.88;10.02;;;;;;;;;;5043681;28;20197;-46
2022/01/01 12:42:38;;;;;;;20.25;9.50;;;;;;;;;;5034624;28;20725;-46
2022/01/01 12:45:06;;;;;;;26.45;9.63;;;;;;;;;;5042376;28;20190;-46
2022/01/01 12:47:33;;;;;;;15.77;8.70;;;;;;;;;;5043180;28;20219;-46
2022/01/01 12:50:00;;;;;;;24.27;9.63;;;;;;;;;;5033713;28;20580;-46
2022/01/01 12:52:27;;;;;;;15.98;8.43;;;;;;;;;;5031605;28;20257;-46
2022/01/01 12:54:53;;;;;;;18.35;8.85;;;;;;;;;;5036096;28;20183;-46
2022/01/01 12:57:19;;;;;;;15.55;8.10;;;;;;;;;;5039170;28;20235;-46
2022/01/01 12:59:48;;;;;;;18.23;8.20;;;;;;;;;;5042249;28;20303;-46
2022/01/01 13:02:14;;;;;;;18.48;8.60;;;;;;;;;;5037694;28;20183;-47
2022/01/01 13:04:40;;;;;;;17.30;8.05;;;;;;;;;;5036095;28;20185;-46
2022/01/01 13:07:06;;;;;;;14.93;7.30;;;;;;;;;;5033062;28;20314;-46
2022/01/01 13:09:33;;;;;;;18.33;7.55;;;;;;;;;;5039028;28;20507;-46
2022/01/01 13:12:04;;;;;;;14.50;7.38;;;;;;;;;;5039751;28;20330;-46
2022/01/01 13:14:31;;;;;;;18.10;7.28;;;;;;;;;;5036753;28;20232;-46
2022/01/01 13:16:58;;;;;;;14.95;7.20;;;;;;;;;;5041298;28;20295;-46
2022/01/01 13:19:24;;;;;;;15.73;7.93;;;;;;;;;;5026308;28;20188;-46
2022/01/01 13:21:54;;;;;;;15.48;7.80;;;;;;;;;;5031624;28;20191;-46
2022/01/01 13:24:23;;;;;;;18.90;7.45;;;;;;;;;;5041472;28;20500;-46
2022/01/01 13:26:49;;;;;;;17.40;7.70;;;;;;;;;;5050595;28;20206;-46
2022/01/01 13:29:15;;;;;;;15.07;7.10;;;;;;;;;;5033361;28;20179;-46
2022/01/01 13:31:41;;;;;;;13.90;7.28;;;;;;;;;;5017346;28;20196;-46
2022/01/01 13:34:11;;;;;;;13.20;6.60;;;;;;;;;;5030002;28;20200;-47
2022/01/01 13:36:44;;;;;;;11.23;6.10;;;;;;;;;;5031891;28;20591;-46
2022/01/01 13:39:12;;;;;;;17.05;6.85;;;;;;;;;;5036308;28;20172;-46
2022/01/01 13:41:42;;;;;;;12.57;6.45;;;;;;;;;;5014818;28;20188;-46
2022/01/01 13:44:24;;;;;;;12.68;6.60;;;;;;;;;;5039076;28;20233;-46
2022/01/01 13:47:00;;;;;;;14.48;7.25;;;;;;;;;;5032901;28;20287;-46
2022/01/01 13:49:26;;;;;;;16.33;6.60;;;;;;;;;;5040030;28;20517;-46
2022/01/01 13:51:58;;;;;;;12.75;6.35;;;;;;;;;;5031109;28;20213;-46
2022/01/01 13:54:25;;;;;;;11.75;5.65;;;;;;;;;;5039250;28;20191;-46
2022/01/01 13:56:55;;;;;;;15.38;6.22;;;;;;;;;;5029663;28;20589;-46
2022/01/01 13:59:30;;;;;;;12.50;6.32;;;;;;;;;;5035376;28;20966;-46
2022/01/01 14:01:57;;;;;;;15.32;6.28;;;;;;;;;;5034505;28;20199;-47
2022/01/01 14:04:24;;;;;;;12.60;6.07;;;;;;;;;;5022516;28;20191;-46
2022/01/01 14:07:22;;;;;;;13.85;5.63;;;;;;;;;;5025341;28;20180;-46
2022/01/01 14:10:10;;;;;;;10.63;5.20;;;;;;;;;;5000715;28;20267;-46
2022/01/01 14:12:38;;;;;;;10.20;5.28;;;;;;;;;;5033115;28;20180;-46
2022/01/01 14:15:08;;;;;;;10.50;4.63;;;;;;;;;;5031068;28;20176;-46
2022/01/01 14:17:57;;;;;;;10.98;5.03;;;;;;;;;;5042603;28;20212;-46
2022/01/01 14:20:30;;;;;;;9.65;4.63;;;;;;;;;;5045662;28;20223;-46
2022/01/01 14:22:56;;;;;;;7.82;4.40;;;;;;;;;;5043265;28;20275;-46
2022/01/01 14:25:25;;;;;;;13.95;4.40;;;;;;;;;;5042273;28;20182;-46
2022/01/01 14:27:52;;;;;;;7.53;4.55;;;;;;;;;;5047585;28;20187;-46
2022/01/01 14:30:19;;;;;;;9.20;4.15;;;;;;;;;;5042492;28;20179;-46
2022/01/01 14:32:46;;;;;;;7.30;4.13;;;;;;;;;;5033495;28;20448;-46
2022/01/01 14:35:13;;;;;;;8.65;4.43;;;;;;;;;;5047265;28;20253;-46
2022/01/01 14:37:39;;;;;;;8.10;4.20;;;;;;;;;;5050177;28;20246;-46
2022/01/01 14:40:06;;;;;;;8.65;4.07;;;;;;;;;;5043523;28;20199;-46